createdAt,value
2018-09-24T00:01:08.869Z,8.02
2018-09-24T00:03:37.460Z,7.94
2018-09-24T00:06:06.146Z,7.83
2018-09-24T00:08:34.730Z,7.87
2018-09-24T00:11:03.277Z,7.86
2018-09-24T00:13:31.867Z,7.87
2018-09-24T00:16:00.469Z,8.02
2018-09-24T00:18:29.058Z,7.98
2018-09-24T00:20:57.674Z,7.97
2018-09-24T00:23:26.297Z,7.95
2018-09-24T00:25:54.881Z,7.87
2018-09-24T00:28:23.582Z,7.84
2018-09-24T00:30:52.174Z,7.94
2018-09-24T00:33:20.825Z,7.79
2018-09-24T00:35:49.430Z,7.64
2018-09-24T00:38:18.037Z,7.57
2018-09-24T00:40:46.650Z,7.56
2018-09-24T00:43:16.212Z,7.62
2018-09-24T00:45:44.816Z,7.64
2018-09-24T00:48:14.162Z,7.68
2018-09-24T00:50:42.710Z,7.88
2018-09-24T00:53:11.331Z,7.88
2018-09-24T00:55:39.915Z,7.96
2018-09-24T00:58:08.502Z,7.70
2018-09-24T01:00:37.101Z,7.61
2018-09-24T01:03:05.786Z,7.59
2018-09-24T01:05:34.349Z,7.62
2018-09-24T01:08:03.014Z,7.69
2018-09-24T01:10:31.587Z,7.65
2018-09-24T01:13:00.178Z,7.63
2018-09-24T01:15:28.742Z,7.65
2018-09-24T01:17:57.341Z,7.68
2018-09-24T01:20:25.954Z,7.63
2018-09-24T01:22:54.625Z,7.76
2018-09-24T01:25:23.185Z,7.66
2018-09-24T01:27:51.804Z,7.72
2018-09-24T01:30:20.402Z,7.78
2018-09-24T01:32:48.997Z,7.94
2018-09-24T01:35:17.568Z,7.91
2018-09-24T01:37:46.154Z,8.01
2018-09-24T01:40:14.717Z,8.01
2018-09-24T01:42:43.315Z,8.01
2018-09-24T01:45:11.866Z,8.04
2018-09-24T01:47:40.484Z,7.90
2018-09-24T01:50:09.158Z,7.85
2018-09-24T01:52:37.734Z,7.61
2018-09-24T01:55:06.317Z,7.52
2018-09-24T01:57:34.890Z,7.39
2018-09-24T02:00:03.532Z,7.34
2018-09-24T02:02:32.130Z,7.26
2018-09-24T02:05:00.796Z,7.25
2018-09-24T02:07:29.546Z,7.26
2018-09-24T02:09:58.225Z,7.13
2018-09-24T02:12:26.814Z,7.10
2018-09-24T02:14:55.353Z,6.93
2018-09-24T02:17:24.313Z,6.84
2018-09-24T02:19:53.021Z,6.69
2018-09-24T02:22:27.425Z,6.59
2018-09-24T02:24:57.264Z,6.60
2018-09-24T02:27:26.661Z,6.46
2018-09-24T02:29:55.801Z,6.36
2018-09-24T02:32:24.385Z,6.45
2018-09-24T02:34:55.502Z,6.30
2018-09-24T02:37:24.057Z,6.20
2018-09-24T02:39:52.733Z,6.15
2018-09-24T02:42:21.288Z,6.06
2018-09-24T02:44:58.838Z,6.08
2018-09-24T02:47:32.601Z,5.99
2018-09-24T02:50:02.795Z,5.94
2018-09-24T02:52:31.375Z,5.93
2018-09-24T02:54:59.946Z,5.82
2018-09-24T02:57:29.637Z,5.81
2018-09-24T02:59:58.266Z,5.82
2018-09-24T03:02:26.832Z,5.85
2018-09-24T03:04:56.032Z,5.83
2018-09-24T03:07:24.906Z,5.82
2018-09-24T03:09:53.489Z,5.75
2018-09-24T03:12:22.341Z,5.90
2018-09-24T03:14:50.985Z,5.92
2018-09-24T03:17:20.170Z,5.82
2018-09-24T03:19:48.756Z,5.82
2018-09-24T03:22:21.526Z,5.83
2018-09-24T03:24:50.310Z,5.81
2018-09-24T03:27:18.870Z,5.89
2018-09-24T03:29:47.453Z,5.97
2018-09-24T03:32:16.023Z,5.98
2018-09-24T03:34:44.603Z,5.89
2018-09-24T03:37:13.159Z,5.89
2018-09-24T03:39:41.738Z,5.77
2018-09-24T03:42:10.307Z,5.70
2018-09-24T03:44:38.917Z,5.67
2018-09-24T03:47:07.473Z,5.74
2018-09-24T03:49:36.075Z,5.61
2018-09-24T03:52:04.665Z,5.52
2018-09-24T03:54:33.248Z,5.43
2018-09-24T03:57:01.865Z,5.32
2018-09-24T03:59:30.448Z,5.56
2018-09-24T04:01:59.153Z,5.87
2018-09-24T04:04:32.855Z,5.96
2018-09-24T04:07:06.715Z,6.03
2018-09-24T04:09:40.595Z,6.05
2018-09-24T04:12:14.316Z,6.13
2018-09-24T04:14:48.195Z,6.16
2018-09-24T04:17:22.542Z,6.04
2018-09-24T04:19:56.246Z,6.01
2018-09-24T04:22:29.923Z,5.98
2018-09-24T04:25:03.787Z,5.95
2018-09-24T04:27:38.411Z,5.86
2018-09-24T04:30:12.191Z,5.78
2018-09-24T04:32:45.807Z,5.72
2018-09-24T04:35:19.669Z,5.65
2018-09-24T04:37:55.422Z,5.73
2018-09-24T04:40:29.106Z,5.67
2018-09-24T04:43:02.757Z,5.49
2018-09-24T04:45:36.591Z,5.41
2018-09-24T04:48:11.122Z,5.29
2018-09-24T04:50:44.987Z,5.29
2018-09-24T04:53:19.135Z,5.21
2018-09-24T04:55:52.829Z,5.18
2018-09-24T04:58:27.154Z,5.08
2018-09-24T05:01:01.317Z,5.03
2018-09-24T05:03:35.100Z,5.14
2018-09-24T05:06:08.934Z,5.04
2018-09-24T05:08:43.377Z,5.02
2018-09-24T05:11:17.077Z,4.92
2018-09-24T05:13:50.749Z,4.95
2018-09-24T05:16:24.374Z,4.90
2018-09-24T05:18:59.143Z,4.88
2018-09-24T05:21:32.910Z,4.96
2018-09-24T05:24:06.637Z,4.96
2018-09-24T05:26:40.277Z,5.10
2018-09-24T05:29:14.966Z,5.14
2018-09-24T05:31:48.948Z,5.15
2018-09-24T05:34:22.779Z,5.16
2018-09-24T05:36:56.601Z,5.21
2018-09-24T05:39:38.164Z,5.28
2018-09-24T05:42:11.994Z,5.37
2018-09-24T05:44:45.658Z,5.51
2018-09-24T05:47:19.397Z,5.48
2018-09-24T05:49:54.225Z,5.60
2018-09-24T05:52:27.983Z,5.62
2018-09-24T05:55:01.893Z,5.73
2018-09-24T05:57:35.746Z,5.72
2018-09-24T06:00:10.174Z,5.76
2018-09-24T06:02:43.999Z,5.84
2018-09-24T06:05:17.716Z,5.98
2018-09-24T06:07:51.546Z,6.04
2018-09-24T06:10:26.175Z,6.09
2018-09-24T06:12:59.974Z,6.21
2018-09-24T06:15:33.772Z,6.38
2018-09-24T06:18:07.510Z,6.40
2018-09-24T06:20:42.202Z,6.70
2018-09-24T06:23:15.790Z,6.72
2018-09-24T06:25:49.375Z,7.30
2018-09-24T06:28:23.258Z,9.37
2018-09-24T06:30:57.590Z,11.15
2018-09-24T06:33:31.403Z,12.51
2018-09-24T06:36:05.069Z,13.25
2018-09-24T06:38:38.772Z,14.54
2018-09-24T06:41:13.463Z,14.59
2018-09-24T06:43:47.262Z,16.03
2018-09-24T06:46:20.828Z,17.16
2018-09-24T06:48:54.473Z,18.15
2018-09-24T06:51:29.221Z,17.79
2018-09-24T06:54:03.090Z,17.54
2018-09-24T06:56:36.995Z,17.48
2018-09-24T06:59:11.114Z,16.84
2018-09-24T07:01:46.005Z,17.32
2018-09-24T07:04:19.770Z,18.01
2018-09-24T07:06:53.585Z,21.16
2018-09-24T07:09:27.454Z,21.05
2018-09-24T07:12:01.822Z,20.99
2018-09-24T07:14:35.581Z,20.33
2018-09-24T07:17:09.427Z,22.10
2018-09-24T07:19:43.139Z,20.67
2018-09-24T07:22:17.764Z,21.23
2018-09-24T07:24:51.575Z,22.00
2018-09-24T07:27:25.316Z,21.71
2018-09-24T07:29:59.157Z,21.18
2018-09-24T07:32:33.569Z,22.58
2018-09-24T07:35:07.395Z,21.42
2018-09-24T07:37:41.016Z,21.34
2018-09-24T07:40:14.769Z,21.75
2018-09-24T07:42:49.266Z,23.66
2018-09-24T07:45:23.138Z,23.50
2018-09-24T07:47:57.021Z,23.49
2018-09-24T07:50:30.877Z,25.64
2018-09-24T07:53:05.446Z,25.15
2018-09-24T07:55:39.309Z,24.97
2018-09-24T07:58:13.112Z,25.08
2018-09-24T08:00:46.805Z,27.07
2018-09-24T08:03:21.788Z,24.48
2018-09-24T08:05:55.618Z,27.15
2018-09-24T08:08:29.317Z,24.80
2018-09-24T08:11:02.905Z,23.06
2018-09-24T08:13:37.003Z,24.15
2018-09-24T08:16:10.842Z,26.88
2018-09-24T08:18:44.653Z,26.97
2018-09-24T08:21:18.338Z,28.54
2018-09-24T08:23:52.838Z,25.73
2018-09-24T08:26:26.486Z,25.27
2018-09-24T08:29:00.330Z,24.56
2018-09-24T08:31:33.998Z,23.84
2018-09-24T08:34:08.350Z,22.13
2018-09-24T08:36:42.031Z,22.58
2018-09-24T08:39:15.741Z,23.86
2018-09-24T08:41:49.434Z,23.19
2018-09-24T08:44:24.278Z,24.64
2018-09-24T08:46:58.139Z,24.68
2018-09-24T08:49:31.858Z,25.83
2018-09-24T08:52:05.561Z,26.72
2018-09-24T08:54:39.434Z,25.88
2018-09-24T08:57:13.275Z,26.18
2018-09-24T08:59:46.928Z,28.86
2018-09-24T09:02:20.709Z,26.11
2018-09-24T09:04:55.821Z,27.88
2018-09-24T09:07:29.393Z,28.77
2018-09-24T09:10:03.227Z,25.78
2018-09-24T09:12:37.067Z,28.48
2018-09-24T09:15:11.993Z,24.14
2018-09-24T09:17:45.810Z,20.55
2018-09-24T09:20:19.441Z,16.68
2018-09-24T09:22:53.154Z,16.62
2018-09-24T09:25:27.703Z,22.97
2018-09-24T09:28:01.270Z,25.84
2018-09-24T09:30:34.905Z,28.79
2018-09-24T09:33:08.611Z,31.47
2018-09-24T09:35:43.453Z,29.17
2018-09-24T09:38:16.976Z,29.41
2018-09-24T09:40:50.717Z,25.21
2018-09-24T09:43:24.516Z,28.01
2018-09-24T09:45:59.756Z,23.61
2018-09-24T09:48:33.446Z,25.36
2018-09-24T09:51:08.191Z,22.96
2018-09-24T09:53:41.852Z,25.86
2018-09-24T09:56:16.544Z,23.23
2018-09-24T09:58:50.368Z,22.33
2018-09-24T10:01:24.007Z,23.68
2018-09-24T10:03:57.685Z,23.52
2018-09-24T10:06:32.107Z,23.15
2018-09-24T10:09:05.854Z,25.58
2018-09-24T10:11:39.490Z,22.20
2018-09-24T10:14:13.188Z,19.33
2018-09-24T10:16:48.651Z,17.57
2018-09-24T10:19:22.364Z,23.90
2018-09-24T10:21:56.223Z,26.45
2018-09-24T10:24:29.946Z,26.46
2018-09-24T10:27:04.113Z,26.86
2018-09-24T10:29:37.982Z,24.81
2018-09-24T10:32:11.723Z,20.47
2018-09-24T10:34:45.482Z,24.79
2018-09-24T10:37:19.894Z,27.99
2018-09-24T10:39:53.634Z,28.28
2018-09-24T10:42:27.565Z,26.61
2018-09-24T10:45:01.423Z,23.40
2018-09-24T10:47:36.237Z,21.68
2018-09-24T10:50:10.095Z,22.17
2018-09-24T10:52:43.896Z,21.62
2018-09-24T10:55:17.684Z,18.40
2018-09-24T10:57:52.222Z,23.06
2018-09-24T11:00:26.041Z,25.32
2018-09-24T11:02:59.663Z,22.18
2018-09-24T11:05:33.498Z,19.98
2018-09-24T11:08:11.470Z,21.43
2018-09-24T11:10:45.250Z,24.99
2018-09-24T11:13:19.029Z,25.42
2018-09-24T11:15:52.778Z,22.81
2018-09-24T11:18:26.862Z,22.47
2018-09-24T11:21:00.514Z,24.43
2018-09-24T11:23:34.297Z,27.19
2018-09-24T11:26:08.035Z,25.71
2018-09-24T11:28:42.295Z,26.36
2018-09-24T11:31:16.125Z,28.90
2018-09-24T11:33:50.002Z,30.56
2018-09-24T11:36:23.859Z,26.49
2018-09-24T11:38:58.229Z,23.92
2018-09-24T11:41:32.168Z,21.43
2018-09-24T11:44:05.958Z,18.86
2018-09-24T11:46:39.852Z,17.83
2018-09-24T11:49:14.131Z,17.33
2018-09-24T11:51:47.963Z,16.93
2018-09-24T11:54:21.806Z,16.66
2018-09-24T11:56:55.514Z,15.97
2018-09-24T11:59:30.054Z,15.75
2018-09-24T12:02:03.972Z,15.74
2018-09-24T12:04:37.741Z,15.56
2018-09-24T12:07:11.987Z,14.95
2018-09-24T12:09:46.878Z,14.11
2018-09-24T12:12:20.637Z,13.93
2018-09-24T12:14:54.491Z,14.46
2018-09-24T12:17:28.166Z,14.74
2018-09-24T12:20:02.773Z,14.79
2018-09-24T12:22:36.446Z,14.68
2018-09-24T12:25:10.366Z,14.64
2018-09-24T12:27:44.182Z,14.80
2018-09-24T12:30:18.694Z,16.29
2018-09-24T12:32:52.515Z,17.73
2018-09-24T12:35:26.326Z,20.03
2018-09-24T12:38:00.118Z,22.24
2018-09-24T12:40:35.105Z,23.63
2018-09-24T12:43:08.807Z,23.89
2018-09-24T12:45:42.647Z,24.77
2018-09-24T12:48:16.484Z,26.22
2018-09-24T12:50:51.047Z,27.03
2018-09-24T12:53:24.864Z,27.20
2018-09-24T12:55:58.583Z,26.42
2018-09-24T12:58:32.592Z,26.57
2018-09-24T13:01:06.806Z,25.90
2018-09-24T13:03:40.609Z,27.06
2018-09-24T13:06:14.450Z,24.74
2018-09-24T13:08:48.233Z,22.66
2018-09-24T13:11:22.670Z,20.44
2018-09-24T13:13:56.349Z,20.94
2018-09-24T13:16:30.086Z,22.70
2018-09-24T13:19:03.914Z,21.28
2018-09-24T13:21:38.333Z,23.82
2018-09-24T13:24:12.206Z,25.80
2018-09-24T13:26:45.967Z,26.06
2018-09-24T13:29:19.634Z,25.04
2018-09-24T13:31:54.181Z,20.11
2018-09-24T13:34:27.939Z,19.62
2018-09-24T13:37:01.754Z,17.77
2018-09-24T13:39:35.645Z,16.67
2018-09-24T13:42:09.861Z,15.90
2018-09-24T13:44:43.678Z,16.18
2018-09-24T13:47:17.399Z,19.81
2018-09-24T13:49:51.180Z,19.60
2018-09-24T13:52:25.434Z,19.84
2018-09-24T13:54:59.098Z,23.07
2018-09-24T13:57:32.830Z,23.35
2018-09-24T14:00:06.682Z,20.71
2018-09-24T14:02:41.767Z,20.90
2018-09-24T14:05:15.426Z,20.27
2018-09-24T14:07:49.258Z,18.66
2018-09-24T14:10:23.118Z,17.77
2018-09-24T14:12:58.221Z,17.12
2018-09-24T14:15:31.913Z,15.93
2018-09-24T14:18:09.659Z,15.61
2018-09-24T14:20:43.301Z,15.24
2018-09-24T14:23:17.447Z,15.26
2018-09-24T14:25:51.236Z,14.66
2018-09-24T14:28:24.893Z,14.57
2018-09-24T14:30:58.678Z,14.48
2018-09-24T14:33:33.177Z,14.69
2018-09-24T14:36:06.909Z,14.71
2018-09-24T14:38:41.090Z,14.69
2018-09-24T14:41:14.827Z,14.80
2018-09-24T14:43:49.518Z,15.08
2018-09-24T14:46:23.329Z,14.61
2018-09-24T14:48:56.894Z,14.59
2018-09-24T14:51:30.609Z,15.83
2018-09-24T14:54:04.835Z,18.75
2018-09-24T14:56:38.569Z,18.66
2018-09-24T14:59:12.241Z,19.94
2018-09-24T15:01:46.070Z,19.93
2018-09-24T15:04:20.613Z,19.16
2018-09-24T15:06:54.714Z,19.78
2018-09-24T15:09:28.493Z,18.50
2018-09-24T15:12:02.317Z,16.77
2018-09-24T15:14:36.550Z,15.47
2018-09-24T15:17:10.290Z,15.00
2018-09-24T15:19:44.361Z,14.52
2018-09-24T15:22:18.067Z,14.26
2018-09-24T15:24:52.719Z,14.32
2018-09-24T15:27:26.470Z,13.95
2018-09-24T15:30:00.303Z,13.79
2018-09-24T15:32:35.498Z,13.94
2018-09-24T15:35:10.195Z,13.99
2018-09-24T15:37:43.946Z,13.81
2018-09-24T15:40:17.809Z,13.34
2018-09-24T15:42:51.510Z,13.46
2018-09-24T15:45:25.948Z,13.52
2018-09-24T15:47:59.685Z,13.32
2018-09-24T15:50:33.522Z,13.50
2018-09-24T15:53:07.269Z,13.14
2018-09-24T15:55:41.262Z,13.41
2018-09-24T15:58:19.331Z,13.28
2018-09-24T16:00:53.158Z,13.05
2018-09-24T16:03:26.978Z,12.79
2018-09-24T16:06:01.376Z,12.25
2018-09-24T16:08:35.265Z,11.98
2018-09-24T16:11:09.159Z,11.60
2018-09-24T16:13:43.046Z,11.77
2018-09-24T16:16:17.459Z,11.43
2018-09-24T16:18:51.621Z,11.75
2018-09-24T16:21:25.281Z,12.03
2018-09-24T16:23:59.026Z,12.12
2018-09-24T16:26:34.646Z,11.97
2018-09-24T16:29:08.379Z,12.06
2018-09-24T16:31:42.251Z,11.76
2018-09-24T16:34:16.047Z,11.75
2018-09-24T16:36:50.837Z,11.42
2018-09-24T16:39:29.510Z,11.55
2018-09-24T16:42:03.302Z,11.53
2018-09-24T16:44:36.977Z,11.44
2018-09-24T16:47:11.982Z,11.28
2018-09-24T16:49:45.568Z,11.04
2018-09-24T16:52:19.246Z,11.13
2018-09-24T16:54:52.990Z,10.83
2018-09-24T16:57:27.350Z,10.86
2018-09-24T17:00:01.080Z,10.83
2018-09-24T17:02:34.802Z,10.68
2018-09-24T17:05:08.545Z,10.59
2018-09-24T17:07:43.673Z,10.38
2018-09-24T17:10:17.271Z,10.23
2018-09-24T17:12:50.993Z,10.11
2018-09-24T17:15:24.828Z,10.09
2018-09-24T17:17:58.496Z,9.84
2018-09-24T17:20:32.222Z,9.91
2018-09-24T17:23:05.904Z,9.78
2018-09-24T17:25:39.656Z,9.62
2018-09-24T17:28:13.975Z,9.67
2018-09-24T17:30:47.790Z,9.62
2018-09-24T17:33:21.472Z,9.50
2018-09-24T17:35:55.288Z,9.47
2018-09-24T17:38:29.766Z,9.30
2018-09-24T17:41:03.489Z,9.20
2018-09-24T17:43:37.161Z,9.07
2018-09-24T17:46:10.891Z,9.07
2018-09-24T17:48:45.937Z,8.94
2018-09-24T17:51:19.661Z,8.87
2018-09-24T17:53:53.489Z,8.84
2018-09-24T17:56:27.693Z,8.86
2018-09-24T17:59:02.119Z,8.97
2018-09-24T18:01:35.851Z,8.86
2018-09-24T18:04:09.547Z,9.00
2018-09-24T18:06:43.262Z,8.87
2018-09-24T18:09:18.159Z,8.84
2018-09-24T18:11:51.989Z,8.69
2018-09-24T18:14:25.739Z,8.74
2018-09-24T18:16:59.412Z,8.55
2018-09-24T18:19:33.434Z,8.34
2018-09-24T18:22:07.294Z,8.21
2018-09-24T18:24:40.971Z,8.11
2018-09-24T18:27:14.629Z,7.95
2018-09-24T18:29:49.797Z,7.88
2018-09-24T18:32:23.502Z,7.78
2018-09-24T18:34:57.242Z,7.57
2018-09-24T18:37:31.036Z,7.45
2018-09-24T18:40:05.904Z,7.40
2018-09-24T18:42:39.741Z,7.38
2018-09-24T18:45:13.473Z,7.49
2018-09-24T18:47:47.145Z,7.41
2018-09-24T18:50:21.418Z,7.34
2018-09-24T18:52:55.247Z,7.35
2018-09-24T18:55:29.091Z,7.28
2018-09-24T18:58:02.927Z,7.26
2018-09-24T19:00:37.691Z,7.26
2018-09-24T19:03:11.518Z,7.00
2018-09-24T19:05:45.153Z,6.94
2018-09-24T19:08:19.098Z,6.75
2018-09-24T19:10:53.278Z,6.69
2018-09-24T19:13:26.987Z,6.57
2018-09-24T19:16:00.678Z,6.67
2018-09-24T19:18:34.663Z,6.51
2018-09-24T19:21:09.562Z,6.48
2018-09-24T19:23:43.407Z,6.28
2018-09-24T19:26:17.168Z,6.25
2018-09-24T19:28:51.530Z,6.03
2018-09-24T19:31:25.927Z,6.02
2018-09-24T19:33:59.677Z,5.99
2018-09-24T19:36:33.461Z,6.07
2018-09-24T19:39:07.241Z,5.88
2018-09-24T19:41:42.207Z,5.70
2018-09-24T19:44:15.851Z,5.60
2018-09-24T19:46:49.611Z,5.68
2018-09-24T19:49:23.386Z,5.53
2018-09-24T19:51:59.138Z,5.63
2018-09-24T19:54:32.992Z,5.68
2018-09-24T19:57:06.662Z,5.63
2018-09-24T19:59:40.361Z,5.60
2018-09-24T20:02:15.162Z,5.73
2018-09-24T20:04:48.915Z,5.83
2018-09-24T20:07:22.742Z,5.66
2018-09-24T20:09:56.569Z,5.52
2018-09-24T20:12:30.523Z,5.59
2018-09-24T20:15:04.386Z,5.59
2018-09-24T20:17:37.925Z,5.43
2018-09-24T20:20:11.623Z,5.43
2018-09-24T20:22:45.490Z,5.44
2018-09-24T20:25:19.268Z,5.42
2018-09-24T20:27:53.046Z,5.51
2018-09-24T20:30:26.927Z,5.56
2018-09-24T20:33:01.905Z,5.60
2018-09-24T20:35:35.702Z,5.41
2018-09-24T20:38:09.399Z,5.42
2018-09-24T20:40:43.234Z,5.35
2018-09-24T20:43:17.886Z,5.32
2018-09-24T20:45:51.577Z,5.40
2018-09-24T20:48:25.219Z,5.32
2018-09-24T20:50:59.050Z,5.24
2018-09-24T20:53:33.727Z,5.18
2018-09-24T20:56:07.426Z,5.12
2018-09-24T20:58:41.239Z,5.12
2018-09-24T21:01:15.130Z,5.13
2018-09-24T21:03:49.750Z,5.04
2018-09-24T21:06:23.534Z,5.08
2018-09-24T21:08:57.269Z,4.92
2018-09-24T21:11:30.931Z,4.85
2018-09-24T21:14:05.750Z,4.73
2018-09-24T21:16:39.382Z,4.65
2018-09-24T21:19:13.253Z,4.59
2018-09-24T21:21:46.826Z,4.40
2018-09-24T21:24:20.850Z,4.47
2018-09-24T21:26:55.754Z,4.65
2018-09-24T21:29:29.645Z,4.55
2018-09-24T21:32:03.268Z,4.43
2018-09-24T21:34:37.510Z,4.40
2018-09-24T21:37:11.230Z,4.40
2018-09-24T21:39:45.019Z,4.39
2018-09-24T21:42:18.786Z,4.25
2018-09-24T21:44:52.946Z,4.25
2018-09-24T21:47:26.649Z,4.25
2018-09-24T21:50:00.495Z,4.22
2018-09-24T21:52:34.171Z,4.29
2018-09-24T21:55:09.026Z,4.23
2018-09-24T21:57:42.765Z,4.22
2018-09-24T22:00:16.633Z,4.28
2018-09-24T22:02:50.438Z,4.41
2018-09-24T22:05:24.921Z,4.36
2018-09-24T22:07:58.721Z,4.40
2018-09-24T22:10:39.394Z,4.37
2018-09-24T22:13:13.188Z,4.42
2018-09-24T22:15:47.974Z,4.50
2018-09-24T22:18:21.642Z,4.64
2018-09-24T22:20:55.349Z,4.63
2018-09-24T22:23:28.874Z,4.73
2018-09-24T22:26:03.717Z,4.58
2018-09-24T22:28:37.313Z,4.50
2018-09-24T22:31:11.127Z,4.44
2018-09-24T22:33:44.903Z,4.26
2018-09-24T22:36:19.829Z,4.30
2018-09-24T22:38:53.485Z,4.34
2018-09-24T22:41:27.170Z,4.22
2018-09-24T22:44:01.002Z,4.14
2018-09-24T22:46:35.009Z,4.06
2018-09-24T22:49:08.809Z,4.12
2018-09-24T22:51:42.547Z,4.02
2018-09-24T22:54:16.191Z,3.93
2018-09-24T22:56:51.273Z,3.81
2018-09-24T22:59:25.047Z,3.79
2018-09-24T23:02:03.832Z,3.78
2018-09-24T23:04:37.507Z,3.91
2018-09-24T23:07:12.193Z,3.82
2018-09-24T23:09:45.826Z,3.81
2018-09-24T23:12:19.515Z,3.76
2018-09-24T23:14:53.133Z,3.66
2018-09-24T23:17:27.827Z,3.61
2018-09-24T23:20:01.721Z,3.54
2018-09-24T23:22:35.411Z,3.42
2018-09-24T23:25:09.057Z,3.49
2018-09-24T23:27:43.521Z,3.46
2018-09-24T23:30:17.188Z,3.43
2018-09-24T23:32:50.906Z,3.48
2018-09-24T23:35:24.672Z,3.39
2018-09-24T23:38:00.046Z,3.46
2018-09-24T23:40:33.817Z,3.42
2018-09-24T23:43:07.473Z,3.40
2018-09-24T23:45:41.286Z,3.50
2018-09-24T23:48:16.261Z,3.45
2018-09-24T23:50:49.978Z,3.27
2018-09-24T23:53:23.847Z,3.13
2018-09-24T23:55:57.509Z,3.10
2018-09-24T23:58:32.034Z,3.11
